sensor_id;sensor_type;location;lat;lon;timestamp;P1;durP1;ratioP1;P2;durP2;ratioP2
10497;SDS011;5296;51.060;13.750;2022-09-09T00:03:16;1.10;;;1.10;;
10497;SDS011;5296;51.060;13.750;2022-09-09T00:08:20;1.50;;;1.20;;
10497;SDS011;5296;51.060;13.750;2022-09-09T00:19:06;1.60;;;1.30;;
10497;SDS011;5296;51.060;13.750;2022-09-09T00:24:10;1.30;;;1.20;;
10497;SDS011;5296;51.060;13.750;2022-09-09T00:34:36;1.80;;;1.10;;
10497;SDS011;5296;51.060;13.750;2022-09-09T00:39:49;4.55;;;1.30;;
10497;SDS011;5296;51.060;13.750;2022-09-09T01:05:44;1.40;;;1.30;;
10497;SDS011;5296;51.060;13.750;2022-09-09T01:10:49;1.45;;;1.35;;
10497;SDS011;5296;51.060;13.750;2022-09-09T01:15:54;3.15;;;1.30;;
10497;SDS011;5296;51.060;13.750;2022-09-09T01:21:09;2.40;;;1.10;;
10497;SDS011;5296;51.060;13.750;2022-09-09T01:31:40;1.30;;;1.20;;
10497;SDS011;5296;51.060;13.750;2022-09-09T01:36:49;1.35;;;1.25;;
10497;SDS011;5296;51.060;13.750;2022-09-09T01:41:53;2.38;;;1.30;;
10497;SDS011;5296;51.060;13.750;2022-09-09T01:46:55;1.48;;;1.30;;
10497;SDS011;5296;51.060;13.750;2022-09-09T01:51:57;1.20;;;1.10;;
10497;SDS011;5296;51.060;13.750;2022-09-09T01:57:15;1.65;;;1.42;;
10497;SDS011;5296;51.060;13.750;2022-09-09T02:02:26;1.45;;;1.35;;
10497;SDS011;5296;51.060;13.750;2022-09-09T02:07:41;2.25;;;1.20;;
10497;SDS011;5296;51.060;13.750;2022-09-09T02:13:30;2.47;;;1.35;;
10497;SDS011;5296;51.060;13.750;2022-09-09T02:18:30;1.40;;;1.10;;
10497;SDS011;5296;51.060;13.750;2022-09-09T02:23:37;2.30;;;1.10;;
10497;SDS011;5296;51.060;13.750;2022-09-09T02:28:43;1.50;;;1.25;;
10497;SDS011;5296;51.060;13.750;2022-09-09T02:33:47;4.78;;;1.20;;
10497;SDS011;5296;51.060;13.750;2022-09-09T02:38:53;1.45;;;1.30;;
10497;SDS011;5296;51.060;13.750;2022-09-09T02:44:00;2.22;;;1.40;;
10497;SDS011;5296;51.060;13.750;2022-09-09T02:54:26;4.68;;;1.38;;
10497;SDS011;5296;51.060;13.750;2022-09-09T02:59:34;1.20;;;1.20;;
10497;SDS011;5296;51.060;13.750;2022-09-09T03:04:39;2.35;;;1.60;;
10497;SDS011;5296;51.060;13.750;2022-09-09T03:09:41;1.90;;;1.58;;
10497;SDS011;5296;51.060;13.750;2022-09-09T03:14:44;2.10;;;1.67;;
10497;SDS011;5296;51.060;13.750;2022-09-09T03:19:47;2.00;;;1.40;;
10497;SDS011;5296;51.060;13.750;2022-09-09T03:24:51;1.65;;;1.40;;
10497;SDS011;5296;51.060;13.750;2022-09-09T03:29:53;5.18;;;1.60;;
10497;SDS011;5296;51.060;13.750;2022-09-09T03:34:57;2.67;;;1.80;;
10497;SDS011;5296;51.060;13.750;2022-09-09T03:40:00;1.65;;;1.55;;
10497;SDS011;5296;51.060;13.750;2022-09-09T03:45:03;2.20;;;1.17;;
10497;SDS011;5296;51.060;13.750;2022-09-09T03:50:06;2.25;;;1.38;;
10497;SDS011;5296;51.060;13.750;2022-09-09T03:55:13;1.45;;;1.30;;
10497;SDS011;5296;51.060;13.750;2022-09-09T04:00:16;2.92;;;1.60;;
10497;SDS011;5296;51.060;13.750;2022-09-09T04:05:19;2.50;;;1.67;;
10497;SDS011;5296;51.060;13.750;2022-09-09T04:10:22;4.10;;;1.73;;
10497;SDS011;5296;51.060;13.750;2022-09-09T04:15:25;3.53;;;1.80;;
10497;SDS011;5296;51.060;13.750;2022-09-09T04:20:27;4.97;;;1.73;;
10497;SDS011;5296;51.060;13.750;2022-09-09T04:25:29;3.03;;;1.73;;
10497;SDS011;5296;51.060;13.750;2022-09-09T04:30:30;5.80;;;1.70;;
10497;SDS011;5296;51.060;13.750;2022-09-09T04:35:33;1.60;;;1.50;;
10497;SDS011;5296;51.060;13.750;2022-09-09T04:40:35;3.10;;;1.95;;
10497;SDS011;5296;51.060;13.750;2022-09-09T04:45:37;3.45;;;1.80;;
10497;SDS011;5296;51.060;13.750;2022-09-09T04:50:39;3.10;;;1.95;;
10497;SDS011;5296;51.060;13.750;2022-09-09T04:55:44;4.90;;;1.85;;
10497;SDS011;5296;51.060;13.750;2022-09-09T05:00:46;4.50;;;2.33;;
10497;SDS011;5296;51.060;13.750;2022-09-09T05:05:50;2.72;;;2.30;;
10497;SDS011;5296;51.060;13.750;2022-09-09T05:10:51;3.53;;;1.90;;
10497;SDS011;5296;51.060;13.750;2022-09-09T05:15:53;5.70;;;1.88;;
10497;SDS011;5296;51.060;13.750;2022-09-09T05:20:59;2.45;;;1.85;;
10497;SDS011;5296;51.060;13.750;2022-09-09T05:26:01;6.18;;;1.90;;
10497;SDS011;5296;51.060;13.750;2022-09-09T05:31:05;3.92;;;1.63;;
10497;SDS011;5296;51.060;13.750;2022-09-09T05:36:11;1.92;;;1.83;;
10497;SDS011;5296;51.060;13.750;2022-09-09T05:41:19;3.97;;;2.00;;
10497;SDS011;5296;51.060;13.750;2022-09-09T05:46:22;4.20;;;1.95;;
10497;SDS011;5296;51.060;13.750;2022-09-09T05:51:27;2.65;;;1.60;;
10497;SDS011;5296;51.060;13.750;2022-09-09T05:56:32;3.65;;;1.75;;
10497;SDS011;5296;51.060;13.750;2022-09-09T06:01:35;3.83;;;1.67;;
10497;SDS011;5296;51.060;13.750;2022-09-09T06:06:39;2.78;;;1.45;;
10497;SDS011;5296;51.060;13.750;2022-09-09T06:11:48;4.35;;;1.75;;
10497;SDS011;5296;51.060;13.750;2022-09-09T06:16:49;3.97;;;1.80;;
10497;SDS011;5296;51.060;13.750;2022-09-09T06:21:55;3.53;;;1.80;;
10497;SDS011;5296;51.060;13.750;2022-09-09T06:26:56;2.13;;;1.63;;
10497;SDS011;5296;51.060;13.750;2022-09-09T06:32:02;2.55;;;1.90;;
10497;SDS011;5296;51.060;13.750;2022-09-09T06:37:05;4.30;;;1.90;;
10497;SDS011;5296;51.060;13.750;2022-09-09T06:42:15;3.83;;;2.00;;
10497;SDS011;5296;51.060;13.750;2022-09-09T06:47:23;3.90;;;1.80;;
10497;SDS011;5296;51.060;13.750;2022-09-09T06:52:26;3.53;;;2.05;;
10497;SDS011;5296;51.060;13.750;2022-09-09T06:57:29;4.57;;;1.70;;
10497;SDS011;5296;51.060;13.750;2022-09-09T07:02:40;5.00;;;2.35;;
10497;SDS011;5296;51.060;13.750;2022-09-09T07:07:43;2.20;;;1.77;;
10497;SDS011;5296;51.060;13.750;2022-09-09T07:12:50;3.92;;;1.85;;
10497;SDS011;5296;51.060;13.750;2022-09-09T07:17:54;5.28;;;1.70;;
10497;SDS011;5296;51.060;13.750;2022-09-09T07:22:56;5.45;;;2.08;;
10497;SDS011;5296;51.060;13.750;2022-09-09T07:27:58;5.43;;;1.60;;
10497;SDS011;5296;51.060;13.750;2022-09-09T07:32:59;3.72;;;1.92;;
10497;SDS011;5296;51.060;13.750;2022-09-09T07:38:02;3.28;;;1.60;;
10497;SDS011;5296;51.060;13.750;2022-09-09T07:43:08;5.50;;;2.10;;
10497;SDS011;5296;51.060;13.750;2022-09-09T07:48:14;2.10;;;1.55;;
10497;SDS011;5296;51.060;13.750;2022-09-09T07:53:16;4.57;;;1.80;;
10497;SDS011;5296;51.060;13.750;2022-09-09T07:58:18;3.00;;;1.45;;
10497;SDS011;5296;51.060;13.750;2022-09-09T08:03:19;1.85;;;1.70;;
10497;SDS011;5296;51.060;13.750;2022-09-09T08:08:23;2.00;;;1.52;;
10497;SDS011;5296;51.060;13.750;2022-09-09T08:13:24;3.50;;;1.55;;
10497;SDS011;5296;51.060;13.750;2022-09-09T08:18:27;3.25;;;1.55;;
10497;SDS011;5296;51.060;13.750;2022-09-09T08:23:29;2.45;;;1.48;;
10497;SDS011;5296;51.060;13.750;2022-09-09T08:28:31;2.03;;;1.70;;
10497;SDS011;5296;51.060;13.750;2022-09-09T08:33:33;3.03;;;1.88;;
10497;SDS011;5296;51.060;13.750;2022-09-09T08:38:35;5.45;;;1.90;;
10497;SDS011;5296;51.060;13.750;2022-09-09T08:43:37;2.97;;;1.90;;
10497;SDS011;5296;51.060;13.750;2022-09-09T08:53:57;2.03;;;1.73;;
10497;SDS011;5296;51.060;13.750;2022-09-09T08:59:01;2.83;;;1.65;;
10497;SDS011;5296;51.060;13.750;2022-09-09T09:15:00;6.68;;;2.17;;
10497;SDS011;5296;51.060;13.750;2022-09-09T09:20:02;2.72;;;2.03;;
10497;SDS011;5296;51.060;13.750;2022-09-09T09:25:11;5.47;;;1.70;;
10497;SDS011;5296;51.060;13.750;2022-09-09T09:30:21;3.85;;;1.92;;
10497;SDS011;5296;51.060;13.750;2022-09-09T09:35:35;3.47;;;2.05;;
10497;SDS011;5296;51.060;13.750;2022-09-09T09:45:53;2.88;;;1.63;;
10497;SDS011;5296;51.060;13.750;2022-09-09T09:51:16;3.63;;;1.33;;
10497;SDS011;5296;51.060;13.750;2022-09-09T09:56:26;4.30;;;1.35;;
10497;SDS011;5296;51.060;13.750;2022-09-09T10:01:32;2.70;;;1.30;;
10497;SDS011;5296;51.060;13.750;2022-09-09T10:06:42;2.63;;;1.65;;
10497;SDS011;5296;51.060;13.750;2022-09-09T10:11:44;3.83;;;1.30;;
10497;SDS011;5296;51.060;13.750;2022-09-09T10:27:20;5.30;;;1.60;;
10497;SDS011;5296;51.060;13.750;2022-09-09T10:32:30;1.92;;;1.27;;
10497;SDS011;5296;51.060;13.750;2022-09-09T10:37:44;4.22;;;1.60;;
10497;SDS011;5296;51.060;13.750;2022-09-09T10:43:46;3.00;;;1.40;;
10497;SDS011;5296;51.060;13.750;2022-09-09T10:54:08;3.20;;;1.77;;
10497;SDS011;5296;51.060;13.750;2022-09-09T10:59:22;2.35;;;1.20;;
10497;SDS011;5296;51.060;13.750;2022-09-09T11:04:41;3.17;;;1.20;;
10497;SDS011;5296;51.060;13.750;2022-09-09T11:09:47;4.03;;;1.60;;
10497;SDS011;5296;51.060;13.750;2022-09-09T11:14:54;2.78;;;1.10;;
10497;SDS011;5296;51.060;13.750;2022-09-09T11:19:58;2.55;;;1.20;;
10497;SDS011;5296;51.060;13.750;2022-09-09T11:30:20;2.90;;;1.83;;
10497;SDS011;5296;51.060;13.750;2022-09-09T11:36:00;1.52;;;1.15;;
10497;SDS011;5296;51.060;13.750;2022-09-09T11:41:08;3.08;;;1.30;;
10497;SDS011;5296;51.060;13.750;2022-09-09T11:46:11;3.25;;;1.30;;
10497;SDS011;5296;51.060;13.750;2022-09-09T11:56:28;3.30;;;1.60;;
10497;SDS011;5296;51.060;13.750;2022-09-09T12:01:35;3.05;;;1.50;;
10497;SDS011;5296;51.060;13.750;2022-09-09T12:22:23;2.63;;;1.40;;
10497;SDS011;5296;51.060;13.750;2022-09-09T12:33:08;6.53;;;1.80;;
10497;SDS011;5296;51.060;13.750;2022-09-09T12:38:16;3.65;;;1.40;;
10497;SDS011;5296;51.060;13.750;2022-09-09T12:43:24;2.03;;;1.63;;
10497;SDS011;5296;51.060;13.750;2022-09-09T12:48:39;2.45;;;1.52;;
10497;SDS011;5296;51.060;13.750;2022-09-09T12:53:43;2.70;;;1.80;;
10497;SDS011;5296;51.060;13.750;2022-09-09T12:58:47;3.10;;;1.73;;
10497;SDS011;5296;51.060;13.750;2022-09-09T13:03:52;2.67;;;1.50;;
10497;SDS011;5296;51.060;13.750;2022-09-09T13:08:55;2.20;;;1.50;;
10497;SDS011;5296;51.060;13.750;2022-09-09T13:14:02;8.02;;;1.60;;
10497;SDS011;5296;51.060;13.750;2022-09-09T13:19:08;2.00;;;1.13;;
10497;SDS011;5296;51.060;13.750;2022-09-09T13:24:32;3.38;;;1.42;;
10497;SDS011;5296;51.060;13.750;2022-09-09T13:29:34;2.80;;;1.35;;
10497;SDS011;5296;51.060;13.750;2022-09-09T13:34:36;1.40;;;1.30;;
10497;SDS011;5296;51.060;13.750;2022-09-09T13:39:37;5.25;;;1.70;;
10497;SDS011;5296;51.060;13.750;2022-09-09T13:44:39;2.25;;;1.40;;
10497;SDS011;5296;51.060;13.750;2022-09-09T13:49:42;2.63;;;1.23;;
10497;SDS011;5296;51.060;13.750;2022-09-09T13:54:50;1.83;;;1.35;;
10497;SDS011;5296;51.060;13.750;2022-09-09T13:59:53;1.98;;;1.27;;
10497;SDS011;5296;51.060;13.750;2022-09-09T14:05:11;4.40;;;1.50;;
10497;SDS011;5296;51.060;13.750;2022-09-09T14:10:13;3.28;;;1.40;;
10497;SDS011;5296;51.060;13.750;2022-09-09T14:15:14;3.55;;;1.63;;
10497;SDS011;5296;51.060;13.750;2022-09-09T14:20:16;5.97;;;1.45;;
10497;SDS011;5296;51.060;13.750;2022-09-09T14:25:18;2.70;;;1.30;;
10497;SDS011;5296;51.060;13.750;2022-09-09T14:30:20;3.05;;;1.58;;
10497;SDS011;5296;51.060;13.750;2022-09-09T14:35:21;3.13;;;1.48;;
10497;SDS011;5296;51.060;13.750;2022-09-09T14:40:23;4.20;;;1.67;;
10497;SDS011;5296;51.060;13.750;2022-09-09T14:45:25;14.88;;;3.30;;
10497;SDS011;5296;51.060;13.750;2022-09-09T14:50:27;2.47;;;1.50;;
10497;SDS011;5296;51.060;13.750;2022-09-09T14:55:30;3.53;;;1.80;;
10497;SDS011;5296;51.060;13.750;2022-09-09T15:00:32;4.10;;;1.98;;
10497;SDS011;5296;51.060;13.750;2022-09-09T15:05:34;3.50;;;1.40;;
10497;SDS011;5296;51.060;13.750;2022-09-09T15:10:37;2.50;;;1.52;;
10497;SDS011;5296;51.060;13.750;2022-09-09T15:15:40;1.85;;;1.50;;
10497;SDS011;5296;51.060;13.750;2022-09-09T15:20:45;1.48;;;1.20;;
10497;SDS011;5296;51.060;13.750;2022-09-09T15:25:54;3.53;;;1.40;;
10497;SDS011;5296;51.060;13.750;2022-09-09T15:30:56;1.80;;;1.35;;
10497;SDS011;5296;51.060;13.750;2022-09-09T15:35:59;2.28;;;1.50;;
10497;SDS011;5296;51.060;13.750;2022-09-09T15:41:00;5.55;;;1.85;;
10497;SDS011;5296;51.060;13.750;2022-09-09T15:51:31;4.22;;;1.77;;
10497;SDS011;5296;51.060;13.750;2022-09-09T15:56:49;3.03;;;1.83;;
10497;SDS011;5296;51.060;13.750;2022-09-09T16:01:53;3.58;;;1.70;;
10497;SDS011;5296;51.060;13.750;2022-09-09T16:06:58;2.80;;;1.90;;
10497;SDS011;5296;51.060;13.750;2022-09-09T16:12:01;2.35;;;1.40;;
10497;SDS011;5296;51.060;13.750;2022-09-09T16:17:07;3.05;;;1.67;;
10497;SDS011;5296;51.060;13.750;2022-09-09T16:22:09;3.08;;;1.50;;
10497;SDS011;5296;51.060;13.750;2022-09-09T16:27:10;2.08;;;1.30;;
10497;SDS011;5296;51.060;13.750;2022-09-09T16:32:12;3.88;;;1.42;;
10497;SDS011;5296;51.060;13.750;2022-09-09T16:37:14;1.77;;;1.40;;
10497;SDS011;5296;51.060;13.750;2022-09-09T16:42:15;4.43;;;1.85;;
10497;SDS011;5296;51.060;13.750;2022-09-09T16:47:18;3.55;;;1.60;;
10497;SDS011;5296;51.060;13.750;2022-09-09T16:52:19;5.38;;;1.70;;
10497;SDS011;5296;51.060;13.750;2022-09-09T16:57:21;2.63;;;1.42;;
10497;SDS011;5296;51.060;13.750;2022-09-09T17:02:22;2.75;;;1.42;;
10497;SDS011;5296;51.060;13.750;2022-09-09T17:07:25;5.55;;;1.75;;
10497;SDS011;5296;51.060;13.750;2022-09-09T17:12:27;3.15;;;1.52;;
10497;SDS011;5296;51.060;13.750;2022-09-09T17:17:28;2.42;;;1.50;;
10497;SDS011;5296;51.060;13.750;2022-09-09T17:22:32;2.33;;;1.73;;
10497;SDS011;5296;51.060;13.750;2022-09-09T17:27:34;4.20;;;1.75;;
10497;SDS011;5296;51.060;13.750;2022-09-09T17:32:35;1.90;;;1.58;;
10497;SDS011;5296;51.060;13.750;2022-09-09T17:37:37;3.03;;;1.60;;
10497;SDS011;5296;51.060;13.750;2022-09-09T17:42:39;6.68;;;1.52;;
10497;SDS011;5296;51.060;13.750;2022-09-09T17:47:41;1.75;;;1.52;;
10497;SDS011;5296;51.060;13.750;2022-09-09T17:52:44;3.90;;;1.50;;
10497;SDS011;5296;51.060;13.750;2022-09-09T17:57:45;2.13;;;1.67;;
10497;SDS011;5296;51.060;13.750;2022-09-09T18:02:47;5.38;;;1.98;;
10497;SDS011;5296;51.060;13.750;2022-09-09T18:07:48;3.30;;;1.98;;
10497;SDS011;5296;51.060;13.750;2022-09-09T18:12:50;2.88;;;1.77;;
10497;SDS011;5296;51.060;13.750;2022-09-09T18:17:52;3.42;;;1.70;;
10497;SDS011;5296;51.060;13.750;2022-09-09T18:22:53;3.35;;;1.90;;
10497;SDS011;5296;51.060;13.750;2022-09-09T18:27:55;3.33;;;2.10;;
10497;SDS011;5296;51.060;13.750;2022-09-09T18:32:58;4.38;;;2.05;;
10497;SDS011;5296;51.060;13.750;2022-09-09T18:38:00;3.92;;;1.90;;
10497;SDS011;5296;51.060;13.750;2022-09-09T18:43:02;3.80;;;1.90;;
10497;SDS011;5296;51.060;13.750;2022-09-09T18:48:03;3.08;;;1.85;;
10497;SDS011;5296;51.060;13.750;2022-09-09T18:53:05;3.53;;;2.10;;
10497;SDS011;5296;51.060;13.750;2022-09-09T18:58:07;3.95;;;2.03;;
10497;SDS011;5296;51.060;13.750;2022-09-09T19:03:08;5.50;;;2.22;;
10497;SDS011;5296;51.060;13.750;2022-09-09T19:08:10;9.32;;;2.30;;
10497;SDS011;5296;51.060;13.750;2022-09-09T19:13:12;3.63;;;2.67;;
10497;SDS011;5296;51.060;13.750;2022-09-09T19:18:14;2.50;;;1.98;;
10497;SDS011;5296;51.060;13.750;2022-09-09T19:23:15;3.67;;;2.10;;
10497;SDS011;5296;51.060;13.750;2022-09-09T19:28:17;3.05;;;2.03;;
10497;SDS011;5296;51.060;13.750;2022-09-09T19:33:18;3.10;;;2.00;;
10497;SDS011;5296;51.060;13.750;2022-09-09T19:38:20;2.28;;;2.08;;
10497;SDS011;5296;51.060;13.750;2022-09-09T19:43:23;3.60;;;1.92;;
10497;SDS011;5296;51.060;13.750;2022-09-09T19:48:25;3.78;;;2.20;;
10497;SDS011;5296;51.060;13.750;2022-09-09T19:53:31;3.38;;;2.30;;
10497;SDS011;5296;51.060;13.750;2022-09-09T19:58:36;3.40;;;2.25;;
10497;SDS011;5296;51.060;13.750;2022-09-09T20:03:40;2.95;;;2.25;;
10497;SDS011;5296;51.060;13.750;2022-09-09T20:08:44;3.33;;;2.30;;
10497;SDS011;5296;51.060;13.750;2022-09-09T20:13:47;2.55;;;2.22;;
10497;SDS011;5296;51.060;13.750;2022-09-09T20:18:50;5.13;;;2.25;;
10497;SDS011;5296;51.060;13.750;2022-09-09T20:23:53;4.47;;;2.60;;
10497;SDS011;5296;51.060;13.750;2022-09-09T20:28:56;4.60;;;2.50;;
10497;SDS011;5296;51.060;13.750;2022-09-09T20:33:57;2.75;;;2.35;;
10497;SDS011;5296;51.060;13.750;2022-09-09T20:39:04;2.70;;;2.10;;
10497;SDS011;5296;51.060;13.750;2022-09-09T20:44:08;2.92;;;2.20;;
10497;SDS011;5296;51.060;13.750;2022-09-09T20:49:14;3.35;;;1.92;;
10497;SDS011;5296;51.060;13.750;2022-09-09T20:54:21;3.17;;;1.85;;
10497;SDS011;5296;51.060;13.750;2022-09-09T20:59:24;2.03;;;1.80;;
10497;SDS011;5296;51.060;13.750;2022-09-09T21:04:27;2.92;;;2.30;;
10497;SDS011;5296;51.060;13.750;2022-09-09T21:09:29;5.20;;;2.03;;
10497;SDS011;5296;51.060;13.750;2022-09-09T21:14:31;4.32;;;2.40;;
10497;SDS011;5296;51.060;13.750;2022-09-09T21:19:32;3.78;;;2.25;;
10497;SDS011;5296;51.060;13.750;2022-09-09T21:24:35;3.13;;;2.35;;
10497;SDS011;5296;51.060;13.750;2022-09-09T21:29:38;6.20;;;2.60;;
10497;SDS011;5296;51.060;13.750;2022-09-09T21:34:39;2.45;;;2.20;;
10497;SDS011;5296;51.060;13.750;2022-09-09T21:39:42;2.97;;;2.10;;
10497;SDS011;5296;51.060;13.750;2022-09-09T21:44:44;5.68;;;2.40;;
10497;SDS011;5296;51.060;13.750;2022-09-09T21:49:45;2.50;;;1.98;;
10497;SDS011;5296;51.060;13.750;2022-09-09T21:54:47;2.88;;;2.17;;
10497;SDS011;5296;51.060;13.750;2022-09-09T21:59:49;4.40;;;2.03;;
10497;SDS011;5296;51.060;13.750;2022-09-09T22:04:50;4.32;;;2.67;;
10497;SDS011;5296;51.060;13.750;2022-09-09T22:09:52;3.47;;;2.42;;
10497;SDS011;5296;51.060;13.750;2022-09-09T22:14:53;2.50;;;2.30;;
10497;SDS011;5296;51.060;13.750;2022-09-09T22:19:56;2.30;;;2.10;;
10497;SDS011;5296;51.060;13.750;2022-09-09T22:24:58;2.88;;;2.58;;
10497;SDS011;5296;51.060;13.750;2022-09-09T22:30:00;2.55;;;1.80;;
10497;SDS011;5296;51.060;13.750;2022-09-09T22:35:01;3.88;;;2.30;;
10497;SDS011;5296;51.060;13.750;2022-09-09T22:40:03;4.53;;;2.33;;
10497;SDS011;5296;51.060;13.750;2022-09-09T22:45:05;2.70;;;2.17;;
10497;SDS011;5296;51.060;13.750;2022-09-09T22:50:08;5.28;;;1.88;;
10497;SDS011;5296;51.060;13.750;2022-09-09T22:55:10;2.08;;;1.88;;
10497;SDS011;5296;51.060;13.750;2022-09-09T23:00:12;4.28;;;1.90;;
10497;SDS011;5296;51.060;13.750;2022-09-09T23:05:14;4.53;;;2.00;;
10497;SDS011;5296;51.060;13.750;2022-09-09T23:10:15;5.43;;;1.98;;
10497;SDS011;5296;51.060;13.750;2022-09-09T23:15:17;1.92;;;1.60;;
10497;SDS011;5296;51.060;13.750;2022-09-09T23:20:20;3.00;;;1.73;;
10497;SDS011;5296;51.060;13.750;2022-09-09T23:25:22;3.13;;;1.70;;
10497;SDS011;5296;51.060;13.750;2022-09-09T23:30:23;4.32;;;1.80;;
10497;SDS011;5296;51.060;13.750;2022-09-09T23:35:25;2.80;;;2.03;;
10497;SDS011;5296;51.060;13.750;2022-09-09T23:40:27;3.17;;;1.80;;
10497;SDS011;5296;51.060;13.750;2022-09-09T23:45:28;4.90;;;2.13;;
10497;SDS011;5296;51.060;13.750;2022-09-09T23:50:30;6.50;;;2.60;;
10497;SDS011;5296;51.060;13.750;2022-09-09T23:55:32;3.88;;;1.88;;
